sensor_id;sensor_type;location;lat;lon;timestamp;P1;durP1;ratioP1;P2;durP2;ratioP2
5821;SDS011;2937;48.562;8.022;2023-12-20T00:02:23;7.23;;;4.67;;
5821;SDS011;2937;48.562;8.022;2023-12-20T00:07:15;7.10;;;4.67;;
5821;SDS011;2937;48.562;8.022;2023-12-20T00:12:08;7.43;;;5.57;;
5821;SDS011;2937;48.562;8.022;2023-12-20T00:17:02;6.60;;;5.20;;
5821;SDS011;2937;48.562;8.022;2023-12-20T00:21:55;8.00;;;6.07;;
5821;SDS011;2937;48.562;8.022;2023-12-20T00:26:47;8.50;;;5.87;;
5821;SDS011;2937;48.562;8.022;2023-12-20T00:31:40;8.57;;;5.50;;
5821;SDS011;2937;48.562;8.022;2023-12-20T00:36:34;7.50;;;5.47;;
5821;SDS011;2937;48.562;8.022;2023-12-20T00:41:27;7.00;;;4.60;;
5821;SDS011;2937;48.562;8.022;2023-12-20T00:46:19;7.30;;;5.00;;
5821;SDS011;2937;48.562;8.022;2023-12-20T00:51:12;5.77;;;4.40;;
5821;SDS011;2937;48.562;8.022;2023-12-20T00:56:06;8.40;;;5.20;;
5821;SDS011;2937;48.562;8.022;2023-12-20T01:00:59;6.80;;;5.10;;
5821;SDS011;2937;48.562;8.022;2023-12-20T01:05:52;6.40;;;4.90;;
5821;SDS011;2937;48.562;8.022;2023-12-20T01:10:45;7.77;;;5.53;;
5821;SDS011;2937;48.562;8.022;2023-12-20T01:15:39;9.23;;;5.73;;
5821;SDS011;2937;48.562;8.022;2023-12-20T01:20:33;10.00;;;6.10;;
5821;SDS011;2937;48.562;8.022;2023-12-20T01:25:25;7.43;;;5.60;;
5821;SDS011;2937;48.562;8.022;2023-12-20T01:30:18;7.17;;;5.33;;
5821;SDS011;2937;48.562;8.022;2023-12-20T01:35:12;8.17;;;6.30;;
5821;SDS011;2937;48.562;8.022;2023-12-20T01:40:06;7.27;;;5.77;;
5821;SDS011;2937;48.562;8.022;2023-12-20T01:44:59;8.43;;;5.97;;
5821;SDS011;2937;48.562;8.022;2023-12-20T01:49:52;8.83;;;6.37;;
5821;SDS011;2937;48.562;8.022;2023-12-20T01:54:46;8.27;;;5.63;;
5821;SDS011;2937;48.562;8.022;2023-12-20T01:59:39;9.80;;;6.30;;
5821;SDS011;2937;48.562;8.022;2023-12-20T02:04:32;7.73;;;5.40;;
5821;SDS011;2937;48.562;8.022;2023-12-20T02:09:25;6.90;;;5.33;;
5821;SDS011;2937;48.562;8.022;2023-12-20T02:14:20;8.03;;;5.20;;
5821;SDS011;2937;48.562;8.022;2023-12-20T02:19:13;5.60;;;4.20;;
5821;SDS011;2937;48.562;8.022;2023-12-20T02:24:07;8.10;;;5.20;;
5821;SDS011;2937;48.562;8.022;2023-12-20T02:29:00;6.33;;;4.47;;
5821;SDS011;2937;48.562;8.022;2023-12-20T02:33:53;4.43;;;3.87;;
5821;SDS011;2937;48.562;8.022;2023-12-20T02:38:45;4.23;;;3.60;;
5821;SDS011;2937;48.562;8.022;2023-12-20T02:43:40;6.10;;;4.07;;
5821;SDS011;2937;48.562;8.022;2023-12-20T02:48:33;3.90;;;3.33;;
5821;SDS011;2937;48.562;8.022;2023-12-20T02:53:26;3.97;;;3.57;;
5821;SDS011;2937;48.562;8.022;2023-12-20T02:58:18;4.63;;;3.10;;
5821;SDS011;2937;48.562;8.022;2023-12-20T03:03:12;3.33;;;3.00;;
5821;SDS011;2937;48.562;8.022;2023-12-20T03:08:05;5.83;;;3.30;;
5821;SDS011;2937;48.562;8.022;2023-12-20T03:12:58;3.97;;;3.50;;
5821;SDS011;2937;48.562;8.022;2023-12-20T03:17:50;4.33;;;3.60;;
5821;SDS011;2937;48.562;8.022;2023-12-20T03:22:44;4.40;;;3.70;;
5821;SDS011;2937;48.562;8.022;2023-12-20T03:27:37;5.23;;;3.77;;
5821;SDS011;2937;48.562;8.022;2023-12-20T03:32:31;4.77;;;3.80;;
5821;SDS011;2937;48.562;8.022;2023-12-20T03:37:23;5.20;;;3.50;;
5821;SDS011;2937;48.562;8.022;2023-12-20T03:42:17;4.53;;;3.70;;
5821;SDS011;2937;48.562;8.022;2023-12-20T03:47:10;5.00;;;3.80;;
5821;SDS011;2937;48.562;8.022;2023-12-20T03:52:03;3.83;;;3.33;;
5821;SDS011;2937;48.562;8.022;2023-12-20T03:56:56;3.83;;;2.90;;
5821;SDS011;2937;48.562;8.022;2023-12-20T04:01:50;3.60;;;3.20;;
5821;SDS011;2937;48.562;8.022;2023-12-20T04:06:43;4.40;;;3.20;;
5821;SDS011;2937;48.562;8.022;2023-12-20T04:11:36;4.10;;;3.23;;
5821;SDS011;2937;48.562;8.022;2023-12-20T04:16:28;3.47;;;3.10;;
5821;SDS011;2937;48.562;8.022;2023-12-20T04:21:22;3.50;;;3.07;;
5821;SDS011;2937;48.562;8.022;2023-12-20T04:26:15;3.80;;;2.80;;
5821;SDS011;2937;48.562;8.022;2023-12-20T04:31:08;2.80;;;2.60;;
5821;SDS011;2937;48.562;8.022;2023-12-20T04:36:01;3.00;;;2.70;;
5821;SDS011;2937;48.562;8.022;2023-12-20T04:40:54;2.90;;;2.60;;
5821;SDS011;2937;48.562;8.022;2023-12-20T04:45:47;3.30;;;3.00;;
5821;SDS011;2937;48.562;8.022;2023-12-20T04:50:40;3.10;;;2.80;;
5821;SDS011;2937;48.562;8.022;2023-12-20T04:55:33;3.07;;;2.67;;
5821;SDS011;2937;48.562;8.022;2023-12-20T05:00:27;3.10;;;2.80;;
5821;SDS011;2937;48.562;8.022;2023-12-20T05:05:20;3.10;;;2.70;;
5821;SDS011;2937;48.562;8.022;2023-12-20T05:10:13;3.97;;;2.83;;
5821;SDS011;2937;48.562;8.022;2023-12-20T05:15:06;3.30;;;2.60;;
5821;SDS011;2937;48.562;8.022;2023-12-20T05:20:00;3.30;;;2.80;;
5821;SDS011;2937;48.562;8.022;2023-12-20T05:24:53;3.30;;;2.77;;
5821;SDS011;2937;48.562;8.022;2023-12-20T05:29:46;3.17;;;2.87;;
5821;SDS011;2937;48.562;8.022;2023-12-20T05:34:38;3.40;;;3.10;;
5821;SDS011;2937;48.562;8.022;2023-12-20T05:39:32;3.93;;;3.37;;
5821;SDS011;2937;48.562;8.022;2023-12-20T05:44:25;3.90;;;3.40;;
5821;SDS011;2937;48.562;8.022;2023-12-20T05:49:17;4.00;;;3.40;;
5821;SDS011;2937;48.562;8.022;2023-12-20T05:54:10;4.37;;;3.67;;
5821;SDS011;2937;48.562;8.022;2023-12-20T05:59:04;4.63;;;3.90;;
5821;SDS011;2937;48.562;8.022;2023-12-20T06:03:57;4.87;;;4.07;;
5821;SDS011;2937;48.562;8.022;2023-12-20T06:08:50;6.07;;;4.97;;
5821;SDS011;2937;48.562;8.022;2023-12-20T06:13:42;5.93;;;4.40;;
5821;SDS011;2937;48.562;8.022;2023-12-20T06:18:36;6.40;;;4.10;;
5821;SDS011;2937;48.562;8.022;2023-12-20T06:23:29;7.60;;;4.50;;
5821;SDS011;2937;48.562;8.022;2023-12-20T06:28:22;5.87;;;4.37;;
5821;SDS011;2937;48.562;8.022;2023-12-20T06:33:15;6.27;;;4.47;;
5821;SDS011;2937;48.562;8.022;2023-12-20T06:38:09;5.40;;;4.03;;
5821;SDS011;2937;48.562;8.022;2023-12-20T06:43:01;6.17;;;4.10;;
5821;SDS011;2937;48.562;8.022;2023-12-20T06:48:06;5.77;;;4.40;;
5821;SDS011;2937;48.562;8.022;2023-12-20T06:52:59;7.00;;;4.40;;
5821;SDS011;2937;48.562;8.022;2023-12-20T06:57:59;5.73;;;4.00;;
5821;SDS011;2937;48.562;8.022;2023-12-20T07:02:52;6.33;;;4.00;;
5821;SDS011;2937;48.562;8.022;2023-12-20T07:07:44;5.73;;;4.47;;
5821;SDS011;2937;48.562;8.022;2023-12-20T07:12:37;4.90;;;3.97;;
5821;SDS011;2937;48.562;8.022;2023-12-20T07:17:32;5.10;;;4.60;;
5821;SDS011;2937;48.562;8.022;2023-12-20T07:22:25;6.77;;;5.03;;
5821;SDS011;2937;48.562;8.022;2023-12-20T07:27:18;5.43;;;4.30;;
5821;SDS011;2937;48.562;8.022;2023-12-20T07:32:10;5.93;;;4.60;;
5821;SDS011;2937;48.562;8.022;2023-12-20T07:37:04;10.73;;;8.30;;
5821;SDS011;2937;48.562;8.022;2023-12-20T07:41:57;9.97;;;7.27;;
5821;SDS011;2937;48.562;8.022;2023-12-20T07:46:49;12.57;;;8.53;;
5821;SDS011;2937;48.562;8.022;2023-12-20T07:51:42;13.10;;;8.50;;
5821;SDS011;2937;48.562;8.022;2023-12-20T07:56:36;13.27;;;9.40;;
5821;SDS011;2937;48.562;8.022;2023-12-20T08:01:28;13.30;;;7.90;;
5821;SDS011;2937;48.562;8.022;2023-12-20T08:06:21;23.37;;;14.63;;
5821;SDS011;2937;48.562;8.022;2023-12-20T08:11:15;14.07;;;9.27;;
5821;SDS011;2937;48.562;8.022;2023-12-20T08:16:08;14.83;;;10.27;;
5821;SDS011;2937;48.562;8.022;2023-12-20T08:21:03;16.83;;;11.50;;
5821;SDS011;2937;48.562;8.022;2023-12-20T08:25:55;15.73;;;11.47;;
5821;SDS011;2937;48.562;8.022;2023-12-20T08:30:48;13.53;;;8.77;;
5821;SDS011;2937;48.562;8.022;2023-12-20T08:35:46;12.40;;;8.23;;
5821;SDS011;2937;48.562;8.022;2023-12-20T08:40:39;14.17;;;9.10;;
5821;SDS011;2937;48.562;8.022;2023-12-20T08:45:31;12.90;;;9.20;;
5821;SDS011;2937;48.562;8.022;2023-12-20T08:50:24;80.37;;;14.30;;
5821;SDS011;2937;48.562;8.022;2023-12-20T08:55:18;12.23;;;9.47;;
5821;SDS011;2937;48.562;8.022;2023-12-20T09:00:11;9.33;;;7.70;;
5821;SDS011;2937;48.562;8.022;2023-12-20T09:05:04;11.17;;;8.37;;
5821;SDS011;2937;48.562;8.022;2023-12-20T09:09:57;10.67;;;6.73;;
5821;SDS011;2937;48.562;8.022;2023-12-20T09:14:51;11.43;;;6.00;;
5821;SDS011;2937;48.562;8.022;2023-12-20T09:19:44;11.63;;;5.57;;
5821;SDS011;2937;48.562;8.022;2023-12-20T09:24:37;7.90;;;4.77;;
5821;SDS011;2937;48.562;8.022;2023-12-20T09:29:30;8.33;;;5.10;;
5821;SDS011;2937;48.562;8.022;2023-12-20T09:34:24;6.90;;;4.80;;
5821;SDS011;2937;48.562;8.022;2023-12-20T09:39:17;10.20;;;3.77;;
5821;SDS011;2937;48.562;8.022;2023-12-20T09:44:13;8.47;;;5.73;;
5821;SDS011;2937;48.562;8.022;2023-12-20T09:49:06;8.40;;;6.00;;
5821;SDS011;2937;48.562;8.022;2023-12-20T09:54:00;6.47;;;3.30;;
5821;SDS011;2937;48.562;8.022;2023-12-20T09:58:55;6.70;;;2.80;;
5821;SDS011;2937;48.562;8.022;2023-12-20T10:03:48;4.50;;;2.47;;
5821;SDS011;2937;48.562;8.022;2023-12-20T10:08:42;5.17;;;3.10;;
5821;SDS011;2937;48.562;8.022;2023-12-20T10:13:36;4.80;;;3.10;;
5821;SDS011;2937;48.562;8.022;2023-12-20T10:18:31;6.20;;;3.10;;
5821;SDS011;2937;48.562;8.022;2023-12-20T10:23:29;4.20;;;2.70;;
5821;SDS011;2937;48.562;8.022;2023-12-20T10:28:22;6.73;;;2.60;;
5821;SDS011;2937;48.562;8.022;2023-12-20T10:33:24;7.23;;;2.43;;
5821;SDS011;2937;48.562;8.022;2023-12-20T10:38:18;4.23;;;2.70;;
5821;SDS011;2937;48.562;8.022;2023-12-20T10:43:10;31.93;;;17.50;;
5821;SDS011;2937;48.562;8.022;2023-12-20T10:48:03;10.47;;;7.20;;
5821;SDS011;2937;48.562;8.022;2023-12-20T10:52:57;5.97;;;2.67;;
5821;SDS011;2937;48.562;8.022;2023-12-20T10:57:51;5.63;;;2.97;;
5821;SDS011;2937;48.562;8.022;2023-12-20T11:02:44;7.40;;;3.70;;
5821;SDS011;2937;48.562;8.022;2023-12-20T11:07:38;5.97;;;3.00;;
5821;SDS011;2937;48.562;8.022;2023-12-20T11:12:35;5.80;;;2.90;;
5821;SDS011;2937;48.562;8.022;2023-12-20T11:17:31;4.00;;;2.57;;
5821;SDS011;2937;48.562;8.022;2023-12-20T11:22:24;10.30;;;2.90;;
5821;SDS011;2937;48.562;8.022;2023-12-20T11:27:18;7.90;;;2.73;;
5821;SDS011;2937;48.562;8.022;2023-12-20T11:37:20;4.80;;;2.70;;
5821;SDS011;2937;48.562;8.022;2023-12-20T11:42:14;3.50;;;1.97;;
5821;SDS011;2937;48.562;8.022;2023-12-20T11:47:07;6.73;;;2.73;;
5821;SDS011;2937;48.562;8.022;2023-12-20T11:52:03;9.33;;;2.70;;
5821;SDS011;2937;48.562;8.022;2023-12-20T11:56:57;4.77;;;2.87;;
5821;SDS011;2937;48.562;8.022;2023-12-20T12:01:49;7.50;;;2.77;;
5821;SDS011;2937;48.562;8.022;2023-12-20T12:06:43;4.33;;;2.60;;
5821;SDS011;2937;48.562;8.022;2023-12-20T12:11:36;3.77;;;2.33;;
5821;SDS011;2937;48.562;8.022;2023-12-20T12:16:30;7.27;;;3.17;;
5821;SDS011;2937;48.562;8.022;2023-12-20T12:21:22;5.90;;;2.73;;
5821;SDS011;2937;48.562;8.022;2023-12-20T12:26:24;7.00;;;2.80;;
5821;SDS011;2937;48.562;8.022;2023-12-20T12:31:17;5.53;;;2.87;;
5821;SDS011;2937;48.562;8.022;2023-12-20T12:36:11;5.30;;;3.07;;
5821;SDS011;2937;48.562;8.022;2023-12-20T12:41:07;5.33;;;3.00;;
5821;SDS011;2937;48.562;8.022;2023-12-20T12:46:01;7.20;;;2.60;;
5821;SDS011;2937;48.562;8.022;2023-12-20T12:50:54;3.73;;;2.50;;
5821;SDS011;2937;48.562;8.022;2023-12-20T12:55:51;4.73;;;3.00;;
5821;SDS011;2937;48.562;8.022;2023-12-20T13:00:44;5.40;;;2.70;;
5821;SDS011;2937;48.562;8.022;2023-12-20T13:05:36;9.90;;;4.10;;
5821;SDS011;2937;48.562;8.022;2023-12-20T13:10:33;7.40;;;2.87;;
5821;SDS011;2937;48.562;8.022;2023-12-20T13:15:27;6.47;;;4.33;;
5821;SDS011;2937;48.562;8.022;2023-12-20T13:20:19;5.77;;;3.20;;
5821;SDS011;2937;48.562;8.022;2023-12-20T13:25:13;6.27;;;2.90;;
5821;SDS011;2937;48.562;8.022;2023-12-20T13:30:06;7.40;;;3.03;;
5821;SDS011;2937;48.562;8.022;2023-12-20T13:35:00;6.33;;;3.07;;
5821;SDS011;2937;48.562;8.022;2023-12-20T13:39:53;11.43;;;3.57;;
5821;SDS011;2937;48.562;8.022;2023-12-20T13:44:46;10.40;;;5.00;;
5821;SDS011;2937;48.562;8.022;2023-12-20T13:49:38;7.63;;;3.27;;
5821;SDS011;2937;48.562;8.022;2023-12-20T13:54:32;8.40;;;3.60;;
5821;SDS011;2937;48.562;8.022;2023-12-20T13:59:25;10.40;;;3.47;;
5821;SDS011;2937;48.562;8.022;2023-12-20T14:04:18;5.40;;;3.17;;
5821;SDS011;2937;48.562;8.022;2023-12-20T14:09:30;5.07;;;2.40;;
5821;SDS011;2937;48.562;8.022;2023-12-20T14:14:24;8.57;;;3.20;;
5821;SDS011;2937;48.562;8.022;2023-12-20T14:19:17;9.80;;;3.17;;
5821;SDS011;2937;48.562;8.022;2023-12-20T14:24:10;5.63;;;2.50;;
5821;SDS011;2937;48.562;8.022;2023-12-20T14:29:02;6.10;;;2.23;;
5821;SDS011;2937;48.562;8.022;2023-12-20T14:33:57;5.60;;;2.53;;
5821;SDS011;2937;48.562;8.022;2023-12-20T14:38:50;9.33;;;2.63;;
5821;SDS011;2937;48.562;8.022;2023-12-20T14:43:43;4.60;;;2.37;;
5821;SDS011;2937;48.562;8.022;2023-12-20T14:48:36;5.83;;;3.50;;
5821;SDS011;2937;48.562;8.022;2023-12-20T14:53:30;6.60;;;2.87;;
5821;SDS011;2937;48.562;8.022;2023-12-20T14:58:22;7.17;;;3.13;;
5821;SDS011;2937;48.562;8.022;2023-12-20T15:03:15;7.43;;;2.73;;
5821;SDS011;2937;48.562;8.022;2023-12-20T15:08:09;10.50;;;2.97;;
5821;SDS011;2937;48.562;8.022;2023-12-20T15:13:03;6.70;;;2.57;;
5821;SDS011;2937;48.562;8.022;2023-12-20T15:17:56;5.27;;;2.60;;
5821;SDS011;2937;48.562;8.022;2023-12-20T15:22:48;5.77;;;2.57;;
5821;SDS011;2937;48.562;8.022;2023-12-20T15:27:41;12.07;;;2.70;;
5821;SDS011;2937;48.562;8.022;2023-12-20T15:32:36;7.50;;;2.90;;
5821;SDS011;2937;48.562;8.022;2023-12-20T15:37:29;6.43;;;2.60;;
5821;SDS011;2937;48.562;8.022;2023-12-20T15:42:21;7.67;;;2.83;;
5821;SDS011;2937;48.562;8.022;2023-12-20T15:47:14;11.17;;;3.50;;
5821;SDS011;2937;48.562;8.022;2023-12-20T15:52:08;12.07;;;2.70;;
5821;SDS011;2937;48.562;8.022;2023-12-20T15:57:00;5.17;;;3.00;;
5821;SDS011;2937;48.562;8.022;2023-12-20T16:01:53;8.53;;;3.10;;
5821;SDS011;2937;48.562;8.022;2023-12-20T16:06:46;16.53;;;7.90;;
5821;SDS011;2937;48.562;8.022;2023-12-20T16:11:40;19.60;;;14.57;;
5821;SDS011;2937;48.562;8.022;2023-12-20T16:16:33;12.03;;;7.90;;
5821;SDS011;2937;48.562;8.022;2023-12-20T16:21:26;12.53;;;6.23;;
5821;SDS011;2937;48.562;8.022;2023-12-20T16:26:19;9.17;;;5.73;;
5821;SDS011;2937;48.562;8.022;2023-12-20T16:31:14;8.93;;;5.23;;
5821;SDS011;2937;48.562;8.022;2023-12-20T16:36:07;9.70;;;4.27;;
5821;SDS011;2937;48.562;8.022;2023-12-20T16:40:59;4.90;;;3.10;;
5821;SDS011;2937;48.562;8.022;2023-12-20T16:45:52;4.30;;;2.47;;
5821;SDS011;2937;48.562;8.022;2023-12-20T16:50:46;6.60;;;2.67;;
5821;SDS011;2937;48.562;8.022;2023-12-20T16:55:38;7.93;;;2.60;;
5821;SDS011;2937;48.562;8.022;2023-12-20T17:00:32;6.27;;;2.60;;
5821;SDS011;2937;48.562;8.022;2023-12-20T17:05:25;12.03;;;6.20;;
5821;SDS011;2937;48.562;8.022;2023-12-20T17:10:19;8.00;;;3.37;;
5821;SDS011;2937;48.562;8.022;2023-12-20T17:15:12;7.70;;;2.77;;
5821;SDS011;2937;48.562;8.022;2023-12-20T17:20:05;9.37;;;3.33;;
5821;SDS011;2937;48.562;8.022;2023-12-20T17:24:58;5.23;;;2.93;;
5821;SDS011;2937;48.562;8.022;2023-12-20T17:29:52;3.80;;;2.50;;
5821;SDS011;2937;48.562;8.022;2023-12-20T17:34:45;7.40;;;3.40;;
5821;SDS011;2937;48.562;8.022;2023-12-20T17:39:37;8.63;;;3.37;;
5821;SDS011;2937;48.562;8.022;2023-12-20T17:44:30;3.70;;;3.07;;
5821;SDS011;2937;48.562;8.022;2023-12-20T17:49:24;5.33;;;3.70;;
5821;SDS011;2937;48.562;8.022;2023-12-20T17:54:20;5.40;;;2.50;;
5821;SDS011;2937;48.562;8.022;2023-12-20T17:59:14;7.13;;;3.80;;
5821;SDS011;2937;48.562;8.022;2023-12-20T18:04:06;7.53;;;3.50;;
5821;SDS011;2937;48.562;8.022;2023-12-20T18:09:00;5.50;;;2.93;;
5821;SDS011;2937;48.562;8.022;2023-12-20T18:13:53;7.13;;;2.70;;
5821;SDS011;2937;48.562;8.022;2023-12-20T18:18:46;8.87;;;3.50;;
5821;SDS011;2937;48.562;8.022;2023-12-20T18:23:39;7.33;;;2.57;;
5821;SDS011;2937;48.562;8.022;2023-12-20T18:28:33;5.37;;;3.37;;
5821;SDS011;2937;48.562;8.022;2023-12-20T18:33:25;4.10;;;2.67;;
5821;SDS011;2937;48.562;8.022;2023-12-20T18:38:18;4.83;;;2.63;;
5821;SDS011;2937;48.562;8.022;2023-12-20T18:43:10;3.90;;;2.20;;
5821;SDS011;2937;48.562;8.022;2023-12-20T18:48:05;6.83;;;2.73;;
5821;SDS011;2937;48.562;8.022;2023-12-20T18:52:57;6.47;;;2.80;;
5821;SDS011;2937;48.562;8.022;2023-12-20T18:57:50;10.73;;;2.63;;
5821;SDS011;2937;48.562;8.022;2023-12-20T19:02:43;6.33;;;2.80;;
5821;SDS011;2937;48.562;8.022;2023-12-20T19:07:37;4.20;;;2.80;;
5821;SDS011;2937;48.562;8.022;2023-12-20T19:12:30;3.70;;;2.70;;
5821;SDS011;2937;48.562;8.022;2023-12-20T19:17:22;5.27;;;2.63;;
5821;SDS011;2937;48.562;8.022;2023-12-20T19:22:16;5.93;;;3.10;;
5821;SDS011;2937;48.562;8.022;2023-12-20T19:27:10;7.17;;;4.10;;
5821;SDS011;2937;48.562;8.022;2023-12-20T19:32:03;9.50;;;4.53;;
5821;SDS011;2937;48.562;8.022;2023-12-20T19:36:56;4.20;;;2.90;;
5821;SDS011;2937;48.562;8.022;2023-12-20T19:41:49;5.37;;;3.00;;
5821;SDS011;2937;48.562;8.022;2023-12-20T19:46:43;5.13;;;3.33;;
5821;SDS011;2937;48.562;8.022;2023-12-20T19:51:37;3.53;;;2.83;;
5821;SDS011;2937;48.562;8.022;2023-12-20T19:56:30;4.10;;;3.40;;
5821;SDS011;2937;48.562;8.022;2023-12-20T20:01:22;4.83;;;3.10;;
5821;SDS011;2937;48.562;8.022;2023-12-20T20:06:17;3.13;;;2.40;;
5821;SDS011;2937;48.562;8.022;2023-12-20T20:11:09;4.73;;;2.67;;
5821;SDS011;2937;48.562;8.022;2023-12-20T20:16:20;8.73;;;2.90;;
5821;SDS011;2937;48.562;8.022;2023-12-20T20:21:12;4.00;;;2.13;;
5821;SDS011;2937;48.562;8.022;2023-12-20T20:26:06;2.80;;;1.93;;
5821;SDS011;2937;48.562;8.022;2023-12-20T20:30:59;5.40;;;2.90;;
5821;SDS011;2937;48.562;8.022;2023-12-20T20:35:52;6.43;;;3.00;;
5821;SDS011;2937;48.562;8.022;2023-12-20T20:40:44;5.93;;;2.50;;
5821;SDS011;2937;48.562;8.022;2023-12-20T20:45:40;5.30;;;2.20;;
5821;SDS011;2937;48.562;8.022;2023-12-20T20:50:32;4.20;;;2.80;;
5821;SDS011;2937;48.562;8.022;2023-12-20T20:55:25;5.83;;;2.73;;
5821;SDS011;2937;48.562;8.022;2023-12-20T21:00:18;5.20;;;2.33;;
5821;SDS011;2937;48.562;8.022;2023-12-20T21:05:12;4.00;;;2.67;;
5821;SDS011;2937;48.562;8.022;2023-12-20T21:10:07;5.33;;;3.30;;
5821;SDS011;2937;48.562;8.022;2023-12-20T21:15:00;4.37;;;2.67;;
5821;SDS011;2937;48.562;8.022;2023-12-20T21:19:52;3.90;;;2.60;;
5821;SDS011;2937;48.562;8.022;2023-12-20T21:24:46;10.73;;;3.40;;
5821;SDS011;2937;48.562;8.022;2023-12-20T21:29:39;6.10;;;3.10;;
5821;SDS011;2937;48.562;8.022;2023-12-20T21:34:31;4.83;;;2.97;;
5821;SDS011;2937;48.562;8.022;2023-12-20T21:39:24;6.73;;;3.40;;
5821;SDS011;2937;48.562;8.022;2023-12-20T21:44:20;8.20;;;2.97;;
5821;SDS011;2937;48.562;8.022;2023-12-20T21:49:12;6.63;;;3.10;;
5821;SDS011;2937;48.562;8.022;2023-12-20T21:54:05;6.53;;;2.77;;
5821;SDS011;2937;48.562;8.022;2023-12-20T21:58:57;6.90;;;3.13;;
5821;SDS011;2937;48.562;8.022;2023-12-20T22:03:51;7.07;;;4.80;;
5821;SDS011;2937;48.562;8.022;2023-12-20T22:08:45;7.13;;;2.90;;
5821;SDS011;2937;48.562;8.022;2023-12-20T22:13:37;4.50;;;3.03;;
5821;SDS011;2937;48.562;8.022;2023-12-20T22:18:30;5.90;;;2.90;;
5821;SDS011;2937;48.562;8.022;2023-12-20T22:23:24;7.57;;;3.00;;
5821;SDS011;2937;48.562;8.022;2023-12-20T22:28:17;5.20;;;2.63;;
5821;SDS011;2937;48.562;8.022;2023-12-20T22:33:10;3.90;;;2.60;;
5821;SDS011;2937;48.562;8.022;2023-12-20T22:38:02;6.60;;;2.80;;
5821;SDS011;2937;48.562;8.022;2023-12-20T22:42:56;5.47;;;2.90;;
5821;SDS011;2937;48.562;8.022;2023-12-20T22:47:50;6.07;;;2.77;;
5821;SDS011;2937;48.562;8.022;2023-12-20T22:52:43;3.80;;;2.30;;
5821;SDS011;2937;48.562;8.022;2023-12-20T22:57:36;2.80;;;2.10;;
5821;SDS011;2937;48.562;8.022;2023-12-20T23:02:30;5.60;;;2.30;;
5821;SDS011;2937;48.562;8.022;2023-12-20T23:07:22;2.93;;;2.10;;
5821;SDS011;2937;48.562;8.022;2023-12-20T23:12:15;3.23;;;2.20;;
5821;SDS011;2937;48.562;8.022;2023-12-20T23:17:08;5.27;;;2.10;;
5821;SDS011;2937;48.562;8.022;2023-12-20T23:22:02;3.30;;;2.17;;
5821;SDS011;2937;48.562;8.022;2023-12-20T23:26:55;4.30;;;2.07;;
5821;SDS011;2937;48.562;8.022;2023-12-20T23:31:47;3.90;;;2.00;;
5821;SDS011;2937;48.562;8.022;2023-12-20T23:36:40;3.00;;;1.80;;
5821;SDS011;2937;48.562;8.022;2023-12-20T23:41:34;3.00;;;1.90;;
5821;SDS011;2937;48.562;8.022;2023-12-20T23:46:26;2.27;;;1.80;;
5821;SDS011;2937;48.562;8.022;2023-12-20T23:51:19;2.67;;;1.83;;
5821;SDS011;2937;48.562;8.022;2023-12-20T23:56:12;2.60;;;1.67;;
